Time;durP1;ratioP1;P1;durP2;ratioP2;P2;SDS_P1;SDS_P2;PMS_P1;PMS_P2;Temp;Humidity;BMP_temperature;BMP_pressure;BME280_temperature;BME280_humidity;BME280_pressure;Samples;Min_cycle;Max_cycle;Signal;HPM_P1;HPM_P2
2022/08/21 00:00:59;;;;;;;7.13;5.63;;;;;;;;;;5033782;28;20193;-83
2022/08/21 00:03:26;;;;;;;5.40;5.00;;;;;;;;;;5049703;28;20202;-83
2022/08/21 00:05:53;;;;;;;7.80;5.63;;;;;;;;;;5049899;28;20267;-84
2022/08/21 00:08:22;;;;;;;6.57;5.77;;;;;;;;;;5017068;28;20198;-83
2022/08/21 00:10:49;;;;;;;8.13;5.43;;;;;;;;;;5050238;28;20205;-83
2022/08/21 00:13:17;;;;;;;12.63;7.10;;;;;;;;;;5050400;28;20244;-83
2022/08/21 00:15:44;;;;;;;7.87;6.03;;;;;;;;;;5051671;28;20205;-84
2022/08/21 00:18:12;;;;;;;9.20;6.00;;;;;;;;;;5050329;28;20606;-83
2022/08/21 00:20:40;;;;;;;8.80;6.27;;;;;;;;;;5019944;28;20208;-83
2022/08/21 00:23:07;;;;;;;6.17;5.57;;;;;;;;;;5060097;28;20206;-83
2022/08/21 00:25:35;;;;;;;7.03;5.40;;;;;;;;;;5051312;28;20210;-82
2022/08/21 00:28:02;;;;;;;6.83;6.13;;;;;;;;;;5051387;28;20236;-82
2022/08/21 00:30:30;;;;;;;9.23;6.43;;;;;;;;;;5032650;28;20621;-82
2022/08/21 00:32:58;;;;;;;6.23;5.63;;;;;;;;;;5051008;28;20218;-83
2022/08/21 00:35:28;;;;;;;7.03;6.10;;;;;;;;;;5050044;28;20194;-83
2022/08/21 00:37:55;;;;;;;7.03;6.13;;;;;;;;;;5051351;28;20205;-83
2022/08/21 00:40:26;;;;;;;7.17;5.97;;;;;;;;;;5050960;28;20669;-83
2022/08/21 00:42:54;;;;;;;6.20;5.57;;;;;;;;;;5050828;28;20749;-83
2022/08/21 00:45:22;;;;;;;10.33;6.30;;;;;;;;;;5034258;28;20198;-83
2022/08/21 00:47:49;;;;;;;7.17;5.70;;;;;;;;;;5051039;28;20245;-83
2022/08/21 00:50:16;;;;;;;10.77;7.17;;;;;;;;;;5029454;28;20233;-84
2022/08/21 00:52:44;;;;;;;9.97;6.07;;;;;;;;;;5013968;28;20218;-82
2022/08/21 00:55:12;;;;;;;6.17;5.33;;;;;;;;;;5046576;28;20201;-83
2022/08/21 00:57:43;;;;;;;8.00;5.93;;;;;;;;;;5036794;28;20205;-83
2022/08/21 01:00:17;;;;;;;9.07;6.13;;;;;;;;;;5037301;28;20539;-84
2022/08/21 01:02:44;;;;;;;8.70;5.27;;;;;;;;;;5035929;28;20202;-83
2022/08/21 01:05:11;;;;;;;7.53;6.30;;;;;;;;;;5036251;28;20665;-82
2022/08/21 01:07:39;;;;;;;6.60;5.57;;;;;;;;;;5069247;28;20251;-83
2022/08/21 01:10:08;;;;;;;6.77;5.47;;;;;;;;;;5074520;28;20201;-83
2022/08/21 01:12:35;;;;;;;6.33;5.77;;;;;;;;;;5058035;28;20279;-83
2022/08/21 01:15:04;;;;;;;5.77;5.20;;;;;;;;;;5053653;28;20190;-84
2022/08/21 01:17:33;;;;;;;8.03;5.97;;;;;;;;;;5036154;28;20636;-83
2022/08/21 01:20:01;;;;;;;7.13;5.13;;;;;;;;;;5053008;28;20252;-84
2022/08/21 01:22:29;;;;;;;6.13;5.53;;;;;;;;;;5020113;28;20202;-83
2022/08/21 01:24:56;;;;;;;6.80;5.47;;;;;;;;;;5036215;28;20220;-83
2022/08/21 01:27:23;;;;;;;6.17;5.57;;;;;;;;;;5036304;28;20205;-83
2022/08/21 01:29:55;;;;;;;5.93;5.23;;;;;;;;;;5019084;28;20703;-83
2022/08/21 01:32:22;;;;;;;8.87;5.37;;;;;;;;;;5054157;28;20198;-84
2022/08/21 01:34:51;;;;;;;9.27;6.23;;;;;;;;;;5053659;28;20202;-84
2022/08/21 01:37:19;;;;;;;17.10;6.87;;;;;;;;;;5033813;28;20202;-84
2022/08/21 01:39:48;;;;;;;7.37;6.37;;;;;;;;;;5038212;28;20202;-86
2022/08/21 01:42:16;;;;;;;14.10;6.07;;;;;;;;;;5053443;28;20204;-83
2022/08/21 01:44:43;;;;;;;9.10;6.00;;;;;;;;;;5053663;28;20217;-83
2022/08/21 01:47:13;;;;;;;10.87;5.77;;;;;;;;;;5053056;28;20205;-83
2022/08/21 01:49:41;;;;;;;8.97;6.03;;;;;;;;;;5008938;28;20250;-83
2022/08/21 01:52:08;;;;;;;6.03;5.30;;;;;;;;;;5047636;28;20205;-81
2022/08/21 01:54:36;;;;;;;7.20;5.20;;;;;;;;;;5036145;28;20224;-82
2022/08/21 01:57:06;;;;;;;4.50;4.10;;;;;;;;;;5058526;28;20198;-82
2022/08/21 01:59:33;;;;;;;11.33;3.87;;;;;;;;;;5051764;28;20198;-80
2022/08/21 02:02:00;;;;;;;9.33;5.33;;;;;;;;;;5052375;28;20198;-81
2022/08/21 02:04:27;;;;;;;4.83;4.33;;;;;;;;;;5035959;28;20198;-81
2022/08/21 02:06:54;;;;;;;9.60;5.13;;;;;;;;;;5052603;28;20267;-82
2022/08/21 02:09:22;;;;;;;7.13;3.90;;;;;;;;;;5052524;28;20201;-81
2022/08/21 02:11:49;;;;;;;6.23;4.33;;;;;;;;;;5034398;28;20297;-82
2022/08/21 02:14:18;;;;;;;4.77;3.53;;;;;;;;;;5053279;28;20225;-82
2022/08/21 02:16:46;;;;;;;6.67;3.53;;;;;;;;;;5052525;28;20206;-83
2022/08/21 02:19:15;;;;;;;6.43;3.63;;;;;;;;;;5052035;28;20385;-82
2022/08/21 02:21:42;;;;;;;5.50;4.17;;;;;;;;;;5053070;28;20571;-82
2022/08/21 02:24:09;;;;;;;5.97;5.23;;;;;;;;;;5034546;28;20229;-83
2022/08/21 02:26:38;;;;;;;7.67;5.73;;;;;;;;;;5040822;28;20197;-84
2022/08/21 02:29:07;;;;;;;7.47;6.60;;;;;;;;;;5068826;28;20229;-83
2022/08/21 02:31:36;;;;;;;7.50;6.50;;;;;;;;;;5035699;28;20292;-86
2022/08/21 02:34:03;;;;;;;7.10;5.73;;;;;;;;;;5052631;28;20236;-85
2022/08/21 02:36:30;;;;;;;6.07;5.57;;;;;;;;;;5034173;28;20652;-85
2022/08/21 02:38:57;;;;;;;6.70;6.00;;;;;;;;;;5053407;28;20193;-84
2022/08/21 02:41:25;;;;;;;7.07;5.53;;;;;;;;;;5053516;28;20560;-84
2022/08/21 02:43:51;;;;;;;6.60;6.00;;;;;;;;;;5051540;28;20588;-84
2022/08/21 02:46:20;;;;;;;6.33;5.17;;;;;;;;;;5035567;28;20228;-83
2022/08/21 02:48:49;;;;;;;5.73;5.30;;;;;;;;;;5035182;28;20746;-83
2022/08/21 02:51:18;;;;;;;7.10;5.20;;;;;;;;;;5033582;28;20198;-84
2022/08/21 02:53:46;;;;;;;5.77;5.27;;;;;;;;;;5051864;28;20221;-83
2022/08/21 02:56:16;;;;;;;11.03;5.43;;;;;;;;;;5051618;28;20704;-82
2022/08/21 02:58:47;;;;;;;5.90;5.40;;;;;;;;;;5051814;28;20198;-82
2022/08/21 03:01:15;;;;;;;6.17;5.57;;;;;;;;;;5051384;28;20624;-83
2022/08/21 03:03:44;;;;;;;5.80;5.20;;;;;;;;;;5051808;28;20285;-83
2022/08/21 03:06:15;;;;;;;6.87;5.73;;;;;;;;;;5051852;28;20198;-83
2022/08/21 03:08:44;;;;;;;8.67;5.50;;;;;;;;;;5033895;28;20197;-82
2022/08/21 03:11:12;;;;;;;6.57;5.93;;;;;;;;;;5051345;28;20228;-83
2022/08/21 03:13:39;;;;;;;6.63;5.87;;;;;;;;;;5051590;28;20225;-83
2022/08/21 03:16:08;;;;;;;6.43;5.50;;;;;;;;;;5033625;28;20198;-84
2022/08/21 03:18:35;;;;;;;7.93;5.50;;;;;;;;;;5051248;28;20698;-83
2022/08/21 03:21:02;;;;;;;6.07;5.47;;;;;;;;;;5050842;28;20285;-84
2022/08/21 03:23:31;;;;;;;7.27;4.90;;;;;;;;;;5052114;28;20209;-83
2022/08/21 03:25:59;;;;;;;6.23;5.30;;;;;;;;;;5051185;28;20248;-83
2022/08/21 03:28:26;;;;;;;7.13;5.33;;;;;;;;;;5052412;28;20236;-84
2022/08/21 03:30:54;;;;;;;7.07;4.93;;;;;;;;;;5049277;28;20194;-83
2022/08/21 03:33:21;;;;;;;7.70;5.03;;;;;;;;;;5050852;28;20711;-84
2022/08/21 03:35:52;;;;;;;6.30;5.70;;;;;;;;;;5033688;28;20267;-83
2022/08/21 03:38:19;;;;;;;6.93;5.47;;;;;;;;;;5050626;28;20636;-83
2022/08/21 03:40:48;;;;;;;8.70;5.30;;;;;;;;;;5034031;28;20211;-84
2022/08/21 03:43:15;;;;;;;6.27;5.70;;;;;;;;;;5050394;28;20206;-84
2022/08/21 03:45:42;;;;;;;6.00;5.23;;;;;;;;;;5032841;28;20201;-85
2022/08/21 03:48:10;;;;;;;6.47;5.87;;;;;;;;;;5000960;28;20201;-87
2022/08/21 03:50:41;;;;;;;6.00;5.40;;;;;;;;;;5033771;28;20210;-84
2022/08/21 03:53:08;;;;;;;9.30;6.27;;;;;;;;;;5058818;28;20212;-82
2022/08/21 03:55:36;;;;;;;7.60;5.47;;;;;;;;;;5051809;28;20577;-84
2022/08/21 03:58:05;;;;;;;7.07;5.23;;;;;;;;;;5051599;28;20202;-84
2022/08/21 04:00:32;;;;;;;6.47;4.93;;;;;;;;;;5049516;28;20245;-84
2022/08/21 04:02:59;;;;;;;6.30;5.70;;;;;;;;;;5050407;28;20197;-84
2022/08/21 04:05:29;;;;;;;9.33;6.13;;;;;;;;;;5033732;28;20655;-84
2022/08/21 04:07:58;;;;;;;6.67;5.40;;;;;;;;;;5032429;28;20293;-85
2022/08/21 04:10:27;;;;;;;7.97;5.87;;;;;;;;;;5051652;28;20702;-85
2022/08/21 04:12:55;;;;;;;6.90;5.87;;;;;;;;;;5012289;28;20727;-84
2022/08/21 04:15:25;;;;;;;8.33;6.33;;;;;;;;;;5036084;28;20226;-85
2022/08/21 04:17:52;;;;;;;7.40;5.47;;;;;;;;;;5050186;28;20267;-85
2022/08/21 04:20:21;;;;;;;7.47;5.47;;;;;;;;;;5031623;28;20206;-85
2022/08/21 04:22:50;;;;;;;6.40;5.80;;;;;;;;;;5033691;28;20699;-85
2022/08/21 04:25:18;;;;;;;7.27;5.87;;;;;;;;;;5050109;28;20190;-86
2022/08/21 04:27:45;;;;;;;7.50;5.47;;;;;;;;;;5034115;28;20225;-87
2022/08/21 04:30:13;;;;;;;6.67;5.37;;;;;;;;;;5051901;28;20202;-90
2022/08/21 04:32:43;;;;;;;6.90;5.17;;;;;;;;;;5056844;28;20193;-83
2022/08/21 04:35:11;;;;;;;7.57;6.40;;;;;;;;;;5039940;28;20223;-83
2022/08/21 04:37:39;;;;;;;8.30;5.63;;;;;;;;;;5037632;28;20202;-83
2022/08/21 04:40:09;;;;;;;10.67;6.73;;;;;;;;;;5054783;28;20202;-83
2022/08/21 04:42:44;;;;;;;8.47;6.20;;;;;;;;;;5055138;28;20679;-81
2022/08/21 04:45:17;;;;;;;7.17;5.93;;;;;;;;;;5053241;28;20321;-83
2022/08/21 04:47:45;;;;;;;9.03;5.93;;;;;;;;;;5055447;28;20202;-81
2022/08/21 04:50:12;;;;;;;11.77;7.77;;;;;;;;;;5055122;28;20209;-82
2022/08/21 04:52:39;;;;;;;6.87;6.17;;;;;;;;;;5054789;28;20550;-83
2022/08/21 04:55:08;;;;;;;6.87;5.33;;;;;;;;;;5018781;28;20225;-84
2022/08/21 04:57:35;;;;;;;6.70;5.30;;;;;;;;;;5054208;28;20202;-87
2022/08/21 05:00:05;;;;;;;8.67;5.27;;;;;;;;;;5052346;28;20209;-85
2022/08/21 05:02:33;;;;;;;7.37;6.70;;;;;;;;;;5054675;28;20268;-86
2022/08/21 05:05:02;;;;;;;6.27;5.67;;;;;;;;;;5037725;28;20240;-86
2022/08/21 05:07:31;;;;;;;6.57;5.70;;;;;;;;;;5054619;28;20201;-86
2022/08/21 05:09:58;;;;;;;7.07;6.47;;;;;;;;;;5053385;28;20217;-85
2022/08/21 05:12:26;;;;;;;7.77;6.13;;;;;;;;;;5037175;28;20201;-86
2022/08/21 05:14:53;;;;;;;8.53;5.87;;;;;;;;;;5052252;28;20234;-86
2022/08/21 05:17:21;;;;;;;7.47;6.00;;;;;;;;;;5036707;28;20261;-86
2022/08/21 05:23:12;;;;;;;6.57;5.40;;;;;;;;;;5053536;28;20267;-86
2022/08/21 05:25:40;;;;;;;7.63;6.20;;;;;;;;;;5054046;28;20555;-86
2022/08/21 05:28:07;;;;;;;8.77;5.63;;;;;;;;;;5037148;28;20233;-86
2022/08/21 05:30:47;;;;;;;7.27;5.40;;;;;;;;;;5054494;28;20202;-86
2022/08/21 05:33:14;;;;;;;6.03;5.37;;;;;;;;;;5037098;28;20259;-84
2022/08/21 05:35:41;;;;;;;8.17;6.67;;;;;;;;;;5018964;28;20279;-86
2022/08/21 05:38:10;;;;;;;9.57;4.90;;;;;;;;;;5054193;28;20197;-88
2022/08/21 05:40:37;;;;;;;7.20;5.27;;;;;;;;;;5052547;28;20568;-86
2022/08/21 05:43:05;;;;;;;7.30;5.47;;;;;;;;;;5036612;28;20565;-85
2022/08/21 05:45:34;;;;;;;4.80;4.30;;;;;;;;;;5051664;28;20703;-85
2022/08/21 05:48:07;;;;;;;7.60;5.47;;;;;;;;;;5039153;28;20572;-87
2022/08/21 05:50:34;;;;;;;7.13;5.07;;;;;;;;;;5048671;28;20197;-87
2022/08/21 05:53:04;;;;;;;6.43;4.30;;;;;;;;;;5053821;28;20217;-91
2022/08/21 05:55:34;;;;;;;5.17;4.30;;;;;;;;;;5035889;28;20356;-85
2022/08/21 05:58:01;;;;;;;10.73;4.30;;;;;;;;;;5054506;28;20281;-83
2022/08/21 06:00:29;;;;;;;8.80;4.43;;;;;;;;;;5015294;28;20202;-87
2022/08/21 06:02:56;;;;;;;5.93;4.77;;;;;;;;;;5032788;28;20292;-87
2022/08/21 06:05:24;;;;;;;9.77;4.57;;;;;;;;;;5035119;28;20222;-87
2022/08/21 06:07:51;;;;;;;6.40;4.40;;;;;;;;;;5035489;28;20664;-89
2022/08/21 06:10:19;;;;;;;7.43;4.47;;;;;;;;;;5035752;28;20202;-91
2022/08/21 06:12:49;;;;;;;5.30;4.27;;;;;;;;;;5054158;28;20198;-90
2022/08/21 06:15:16;;;;;;;6.07;4.43;;;;;;;;;;5054467;28;20229;-90
2022/08/21 06:17:46;;;;;;;6.57;4.00;;;;;;;;;;5052503;28;20208;-89
2022/08/21 06:20:13;;;;;;;7.77;4.10;;;;;;;;;;5037052;28;20205;-89
2022/08/21 06:22:42;;;;;;;4.93;4.43;;;;;;;;;;5034510;28;20213;-88
2022/08/21 06:25:10;;;;;;;7.03;4.13;;;;;;;;;;5053086;28;20206;-88
2022/08/21 06:27:45;;;;;;;9.07;4.70;;;;;;;;;;5038310;28;20197;-88
2022/08/21 06:30:16;;;;;;;5.77;3.90;;;;;;;;;;5034986;28;20230;-88
2022/08/21 06:32:44;;;;;;;5.53;3.70;;;;;;;;;;5053019;28;20225;-87
2022/08/21 06:35:11;;;;;;;5.13;4.00;;;;;;;;;;5052252;28;20225;-89
2022/08/21 06:37:39;;;;;;;8.47;4.60;;;;;;;;;;5073636;28;20209;-88
2022/08/21 06:40:09;;;;;;;9.60;4.57;;;;;;;;;;5038207;28;20206;-88
2022/08/21 06:42:36;;;;;;;5.70;4.13;;;;;;;;;;5051808;28;20236;-89
2022/08/21 06:45:07;;;;;;;6.63;4.03;;;;;;;;;;5052222;28;20582;-86
2022/08/21 06:47:35;;;;;;;7.80;4.23;;;;;;;;;;5035891;28;20652;-85
2022/08/21 06:50:03;;;;;;;6.10;4.00;;;;;;;;;;5072558;28;20212;-85
2022/08/21 06:52:30;;;;;;;5.60;4.03;;;;;;;;;;5053004;28;20639;-86
2022/08/21 06:54:57;;;;;;;4.17;3.77;;;;;;;;;;5052529;28;20225;-84
2022/08/21 06:57:25;;;;;;;5.20;4.70;;;;;;;;;;5034097;28;20201;-84
2022/08/21 06:59:52;;;;;;;4.83;3.83;;;;;;;;;;5052136;28;20382;-84
2022/08/21 07:02:19;;;;;;;5.37;4.30;;;;;;;;;;5026774;28;20201;-83
2022/08/21 07:04:48;;;;;;;6.73;5.07;;;;;;;;;;5058490;28;20308;-84
2022/08/21 07:07:15;;;;;;;8.10;4.97;;;;;;;;;;5018515;28;20217;-84
2022/08/21 07:09:42;;;;;;;6.30;5.70;;;;;;;;;;5051219;28;20209;-85
2022/08/21 07:12:09;;;;;;;8.80;4.77;;;;;;;;;;5032474;28;20234;-84
2022/08/21 07:14:36;;;;;;;6.27;5.13;;;;;;;;;;5051407;28;20225;-87
2022/08/21 07:17:03;;;;;;;5.70;5.17;;;;;;;;;;5050856;28;20198;-79
2022/08/21 07:19:30;;;;;;;7.23;5.30;;;;;;;;;;5050876;28;20206;-87
2022/08/21 07:22:01;;;;;;;6.73;5.50;;;;;;;;;;5051788;28;20193;-87
2022/08/21 07:24:29;;;;;;;6.53;5.53;;;;;;;;;;5051317;28;20201;-87
2022/08/21 07:26:55;;;;;;;6.87;5.40;;;;;;;;;;5051561;28;20197;-87
2022/08/21 07:29:22;;;;;;;6.10;5.50;;;;;;;;;;5051163;28;20237;-88
2022/08/21 07:31:50;;;;;;;6.33;5.03;;;;;;;;;;5050791;28;20664;-87
2022/08/21 07:34:18;;;;;;;7.07;5.70;;;;;;;;;;5051434;28;20235;-86
2022/08/21 07:36:46;;;;;;;6.60;5.93;;;;;;;;;;5050701;28;20201;-87
2022/08/21 07:39:14;;;;;;;5.47;4.97;;;;;;;;;;5051392;28;20617;-87
2022/08/21 07:41:42;;;;;;;8.97;5.27;;;;;;;;;;5051067;28;20205;-86
2022/08/21 07:44:09;;;;;;;6.87;5.60;;;;;;;;;;5050800;28;20656;-88
2022/08/21 07:46:36;;;;;;;5.87;5.47;;;;;;;;;;5051145;28;20209;-88
2022/08/21 07:49:03;;;;;;;10.37;6.10;;;;;;;;;;5051061;28;20202;-86
2022/08/21 07:51:30;;;;;;;7.30;5.83;;;;;;;;;;5051251;28;20202;-87
2022/08/21 07:53:59;;;;;;;7.27;6.50;;;;;;;;;;5051037;28;20201;-87
2022/08/21 07:56:28;;;;;;;9.60;6.30;;;;;;;;;;5050713;28;20225;-87
2022/08/21 07:58:57;;;;;;;7.27;5.47;;;;;;;;;;5050761;28;20200;-87
2022/08/21 08:01:24;;;;;;;10.70;5.67;;;;;;;;;;5050931;28;20278;-87
2022/08/21 08:03:51;;;;;;;7.63;5.83;;;;;;;;;;5049805;28;20198;-86
2022/08/21 08:06:19;;;;;;;6.33;5.73;;;;;;;;;;5050806;28;20306;-84
2022/08/21 08:08:49;;;;;;;8.67;6.27;;;;;;;;;;5051123;28;20638;-87
2022/08/21 08:11:16;;;;;;;6.10;5.50;;;;;;;;;;5050604;28;20206;-88
2022/08/21 08:13:46;;;;;;;6.60;5.80;;;;;;;;;;5064517;28;20286;-87
2022/08/21 08:16:13;;;;;;;5.97;5.07;;;;;;;;;;5053102;28;20228;-88
2022/08/21 08:18:44;;;;;;;6.80;5.50;;;;;;;;;;5051507;28;20580;-89
2022/08/21 08:21:11;;;;;;;6.23;5.63;;;;;;;;;;5047861;28;20270;-87
2022/08/21 08:23:38;;;;;;;6.67;5.73;;;;;;;;;;5058842;28;20182;-86
2022/08/21 08:26:05;;;;;;;7.43;5.43;;;;;;;;;;5050345;28;20202;-87
2022/08/21 08:28:33;;;;;;;6.73;6.17;;;;;;;;;;5035143;28;20240;-87
2022/08/21 08:31:02;;;;;;;6.63;6.03;;;;;;;;;;5050802;28;20734;-86
2022/08/21 08:33:29;;;;;;;7.00;6.30;;;;;;;;;;5050490;28;20699;-87
2022/08/21 08:35:56;;;;;;;8.20;6.20;;;;;;;;;;5050443;28;20224;-87
2022/08/21 08:38:24;;;;;;;6.30;5.73;;;;;;;;;;5050848;28;20210;-87
2022/08/21 08:40:59;;;;;;;9.97;6.03;;;;;;;;;;5050485;28;20201;-87
2022/08/21 08:43:26;;;;;;;9.30;6.67;;;;;;;;;;5050668;28;20224;-87
2022/08/21 08:45:55;;;;;;;8.30;6.90;;;;;;;;;;5050472;28;20557;-86
2022/08/21 08:48:33;;;;;;;8.40;5.90;;;;;;;;;;5050241;28;20194;-87
2022/08/21 08:51:02;;;;;;;6.13;5.43;;;;;;;;;;5050289;28;20219;-87
2022/08/21 08:53:32;;;;;;;7.33;6.60;;;;;;;;;;5050599;28;20211;-86
2022/08/21 08:56:02;;;;;;;8.03;6.00;;;;;;;;;;5050450;28;20220;-83
2022/08/21 08:58:31;;;;;;;7.90;6.57;;;;;;;;;;5051077;28;20193;-89
2022/08/21 09:00:58;;;;;;;9.93;6.00;;;;;;;;;;5050020;28;20190;-87
2022/08/21 09:03:28;;;;;;;7.10;6.40;;;;;;;;;;5050480;28;20664;-88
2022/08/21 09:05:58;;;;;;;7.73;5.63;;;;;;;;;;5050310;28;20576;-88
2022/08/21 09:08:39;;;;;;;8.00;5.67;;;;;;;;;;5050697;28;20197;-87
2022/08/21 09:11:12;;;;;;;11.90;6.33;;;;;;;;;;5050566;28;20225;-87
2022/08/21 09:13:49;;;;;;;12.00;6.40;;;;;;;;;;5050787;28;20198;-87
2022/08/21 09:16:28;;;;;;;5.97;5.40;;;;;;;;;;5052259;28;20221;-86
2022/08/21 09:19:05;;;;;;;9.33;5.80;;;;;;;;;;5054514;28;20620;-87
2022/08/21 09:21:40;;;;;;;8.67;6.10;;;;;;;;;;5054279;28;20610;-87
2022/08/21 09:24:20;;;;;;;7.93;6.20;;;;;;;;;;5054013;28;20228;-88
2022/08/21 09:26:54;;;;;;;6.83;5.37;;;;;;;;;;5053706;28;20572;-87
2022/08/21 09:29:23;;;;;;;7.37;6.37;;;;;;;;;;5053969;28;20700;-88
2022/08/21 09:31:50;;;;;;;8.87;5.80;;;;;;;;;;5053819;28;20236;-86
2022/08/21 09:34:27;;;;;;;7.90;6.17;;;;;;;;;;5053933;28;20224;-88
2022/08/21 09:36:53;;;;;;;6.50;5.90;;;;;;;;;;5053261;28;20221;-88
2022/08/21 09:39:25;;;;;;;7.87;5.70;;;;;;;;;;5053909;28;20288;-88
2022/08/21 09:41:57;;;;;;;7.00;5.37;;;;;;;;;;5053796;28;20605;-88
2022/08/21 09:44:27;;;;;;;7.17;6.47;;;;;;;;;;5053582;28;20202;-88
2022/08/21 09:46:56;;;;;;;6.77;5.93;;;;;;;;;;5053352;28;20217;-86
2022/08/21 09:49:35;;;;;;;8.97;6.23;;;;;;;;;;5053433;28;20213;-88
2022/08/21 09:52:03;;;;;;;7.93;5.50;;;;;;;;;;5055721;28;20207;-88
2022/08/21 09:54:32;;;;;;;9.93;7.00;;;;;;;;;;5063728;28;20225;-88
2022/08/21 09:59:46;;;;;;;7.53;6.47;;;;;;;;;;5053361;28;20208;-89
2022/08/21 10:02:35;;;;;;;6.17;5.57;;;;;;;;;;5053593;28;20232;-89
2022/08/21 10:05:08;;;;;;;5.77;5.27;;;;;;;;;;5049105;28;20205;-89
2022/08/21 10:07:38;;;;;;;6.27;5.67;;;;;;;;;;5053121;28;20672;-87
2022/08/21 10:10:07;;;;;;;8.17;5.37;;;;;;;;;;5053411;28;20201;-89
2022/08/21 10:12:43;;;;;;;6.73;6.03;;;;;;;;;;5053393;28;20198;-88
2022/08/21 10:15:17;;;;;;;7.43;6.30;;;;;;;;;;5053105;28;20212;-87
2022/08/21 10:17:47;;;;;;;16.43;7.40;;;;;;;;;;5053430;28;20209;-86
2022/08/21 10:20:21;;;;;;;7.27;5.30;;;;;;;;;;5068277;28;20197;-85
2022/08/21 10:22:56;;;;;;;5.80;5.20;;;;;;;;;;5053211;28;20197;-84
2022/08/21 10:25:27;;;;;;;6.20;5.60;;;;;;;;;;5052907;28;20204;-85
2022/08/21 10:28:00;;;;;;;8.97;5.90;;;;;;;;;;5051692;28;20213;-86
2022/08/21 10:30:51;;;;;;;8.37;5.60;;;;;;;;;;5052304;28;20206;-85
2022/08/21 10:33:28;;;;;;;6.83;5.43;;;;;;;;;;5052381;28;20202;-86
2022/08/21 10:36:04;;;;;;;6.43;5.83;;;;;;;;;;5061447;28;20306;-86
2022/08/21 10:39:05;;;;;;;7.00;5.57;;;;;;;;;;5058867;28;20206;-86
2022/08/21 10:41:42;;;;;;;8.70;6.37;;;;;;;;;;5038940;28;20671;-86
2022/08/21 10:44:16;;;;;;;6.00;5.40;;;;;;;;;;5052080;28;20201;-86
2022/08/21 10:46:51;;;;;;;7.60;6.13;;;;;;;;;;5056594;28;20206;-85
2022/08/21 10:49:25;;;;;;;6.80;6.10;;;;;;;;;;5053235;28;20205;-86
2022/08/21 10:52:04;;;;;;;8.53;6.73;;;;;;;;;;5052357;28;20198;-85
2022/08/21 10:54:36;;;;;;;7.27;6.53;;;;;;;;;;5051813;28;20297;-85
2022/08/21 10:57:06;;;;;;;8.83;7.93;;;;;;;;;;5052198;28;20222;-85
2022/08/21 10:59:38;;;;;;;10.80;6.60;;;;;;;;;;5052053;28;20688;-85
2022/08/21 11:02:12;;;;;;;12.50;7.70;;;;;;;;;;5052798;28;20198;-84
2022/08/21 11:04:47;;;;;;;7.73;6.90;;;;;;;;;;5052624;28;20197;-84
2022/08/21 11:07:21;;;;;;;8.47;7.60;;;;;;;;;;5051870;28;20213;-85
2022/08/21 11:09:49;;;;;;;9.37;7.53;;;;;;;;;;5053043;28;20302;-86
2022/08/21 11:12:23;;;;;;;8.83;7.40;;;;;;;;;;5051580;28;20282;-85
2022/08/21 11:14:56;;;;;;;7.50;6.80;;;;;;;;;;5052025;28;20216;-86
2022/08/21 11:17:27;;;;;;;10.53;7.13;;;;;;;;;;5051351;28;20225;-85
2022/08/21 11:19:55;;;;;;;7.67;6.83;;;;;;;;;;5052779;28;20197;-86
2022/08/21 11:22:28;;;;;;;7.77;6.93;;;;;;;;;;5052972;28;20197;-86
2022/08/21 11:24:59;;;;;;;8.57;6.87;;;;;;;;;;5052314;28;20253;-86
2022/08/21 11:27:30;;;;;;;7.30;6.60;;;;;;;;;;5052230;28;20198;-86
2022/08/21 11:29:59;;;;;;;7.17;6.17;;;;;;;;;;5052204;28;20635;-86
2022/08/21 11:32:37;;;;;;;9.93;7.67;;;;;;;;;;5052538;28;20723;-86
2022/08/21 11:35:11;;;;;;;7.57;6.83;;;;;;;;;;5052862;28;20260;-82
2022/08/21 11:37:57;;;;;;;9.30;7.67;;;;;;;;;;5052707;28;20227;-84
2022/08/21 11:40:51;;;;;;;9.77;7.60;;;;;;;;;;5051647;28;20194;-84
2022/08/21 11:43:22;;;;;;;14.70;8.40;;;;;;;;;;5053156;28;20206;-84
2022/08/21 11:45:52;;;;;;;19.07;8.67;;;;;;;;;;5050957;28;20204;-83
2022/08/21 11:48:35;;;;;;;8.83;8.00;;;;;;;;;;5050868;28;20201;-84
2022/08/21 11:51:07;;;;;;;8.37;7.57;;;;;;;;;;5051051;28;20275;-84
2022/08/21 11:53:38;;;;;;;10.13;8.43;;;;;;;;;;5050546;28;20579;-83
2022/08/21 11:56:10;;;;;;;10.00;8.77;;;;;;;;;;5050838;28;20730;-84
2022/08/21 11:58:40;;;;;;;10.87;9.20;;;;;;;;;;5051655;28;20574;-83
2022/08/21 12:01:10;;;;;;;9.33;8.37;;;;;;;;;;5050671;28;20201;-84
2022/08/21 12:03:39;;;;;;;9.40;8.40;;;;;;;;;;5051343;28;20208;-84
2022/08/21 12:06:08;;;;;;;13.80;8.43;;;;;;;;;;5050640;28;20198;-83
2022/08/21 12:08:39;;;;;;;12.77;9.13;;;;;;;;;;5051194;28;20194;-84
2022/08/21 12:11:07;;;;;;;11.97;8.73;;;;;;;;;;5050910;28;20194;-84
2022/08/21 12:13:37;;;;;;;9.50;8.70;;;;;;;;;;5065436;28;20634;-84
2022/08/21 12:16:08;;;;;;;9.50;8.60;;;;;;;;;;5050470;28;20221;-85
2022/08/21 12:18:37;;;;;;;11.47;8.07;;;;;;;;;;5050778;28;20201;-84
2022/08/21 12:21:18;;;;;;;9.40;7.50;;;;;;;;;;5051231;28;20300;-84
2022/08/21 12:23:50;;;;;;;9.03;8.13;;;;;;;;;;5034343;28;20738;-84
2022/08/21 12:26:29;;;;;;;13.17;7.93;;;;;;;;;;5051290;28;20206;-84
2022/08/21 12:29:23;;;;;;;13.57;7.37;;;;;;;;;;5032288;28;20309;-84
2022/08/21 12:31:57;;;;;;;7.67;6.97;;;;;;;;;;5022565;28;20202;-84
2022/08/21 12:34:28;;;;;;;12.37;8.47;;;;;;;;;;5031512;28;20203;-84
2022/08/21 12:36:58;;;;;;;8.23;7.43;;;;;;;;;;5048840;28;20225;-85
2022/08/21 12:39:30;;;;;;;6.87;6.20;;;;;;;;;;5050716;28;20186;-84
2022/08/21 12:42:00;;;;;;;8.20;7.40;;;;;;;;;;5051364;28;20198;-84
2022/08/21 12:44:32;;;;;;;9.57;5.97;;;;;;;;;;5051434;28;20218;-85
2022/08/21 12:47:02;;;;;;;7.43;6.83;;;;;;;;;;5050107;28;20656;-84
2022/08/21 12:49:34;;;;;;;6.70;6.10;;;;;;;;;;5050152;28;20206;-85
2022/08/21 12:52:05;;;;;;;7.50;6.33;;;;;;;;;;5054468;28;20664;-84
2022/08/21 12:54:39;;;;;;;6.27;5.67;;;;;;;;;;5053662;28;20707;-85
2022/08/21 12:57:08;;;;;;;6.30;5.70;;;;;;;;;;5054497;28;20216;-84
2022/08/21 12:59:38;;;;;;;6.70;6.10;;;;;;;;;;5054779;28;20251;-85
2022/08/21 13:02:14;;;;;;;8.03;6.10;;;;;;;;;;5054845;28;20209;-85
2022/08/21 13:04:42;;;;;;;7.60;6.30;;;;;;;;;;5053502;28;20227;-86
2022/08/21 13:07:11;;;;;;;8.60;6.17;;;;;;;;;;5054695;28;20201;-85
2022/08/21 13:09:45;;;;;;;7.50;6.10;;;;;;;;;;5054757;28;20205;-85
2022/08/21 13:12:12;;;;;;;7.27;5.93;;;;;;;;;;5054916;28;20193;-85
2022/08/21 13:14:42;;;;;;;7.40;6.30;;;;;;;;;;5054981;28;20198;-85
2022/08/21 13:17:10;;;;;;;6.57;5.97;;;;;;;;;;5054620;28;20600;-85
2022/08/21 13:19:37;;;;;;;8.17;5.63;;;;;;;;;;5054423;28;20198;-85
2022/08/21 13:22:05;;;;;;;8.00;6.63;;;;;;;;;;5055176;28;20568;-85
2022/08/21 13:24:35;;;;;;;10.47;6.80;;;;;;;;;;5054768;28;20216;-85
2022/08/21 13:27:04;;;;;;;7.00;6.40;;;;;;;;;;5037154;28;20190;-86
2022/08/21 13:29:34;;;;;;;9.37;7.07;;;;;;;;;;5054697;28;20231;-85
2022/08/21 13:32:02;;;;;;;7.00;6.23;;;;;;;;;;5054812;28;20208;-84
2022/08/21 13:34:32;;;;;;;7.33;6.63;;;;;;;;;;5053192;28;20186;-85
2022/08/21 13:37:01;;;;;;;6.17;5.57;;;;;;;;;;5053393;28;20253;-85
2022/08/21 13:39:28;;;;;;;6.93;5.93;;;;;;;;;;5053507;28;20204;-85
2022/08/21 13:41:59;;;;;;;6.13;5.50;;;;;;;;;;5053054;28;20210;-85
2022/08/21 13:44:36;;;;;;;5.77;5.27;;;;;;;;;;5053137;28;20714;-85
2022/08/21 13:47:06;;;;;;;9.63;5.97;;;;;;;;;;5052764;28;20185;-85
2022/08/21 13:49:34;;;;;;;8.27;6.00;;;;;;;;;;5063933;28;20201;-85
2022/08/21 13:52:01;;;;;;;6.03;5.23;;;;;;;;;;5056649;28;20194;-85
2022/08/21 13:54:33;;;;;;;5.97;5.43;;;;;;;;;;5053580;28;20202;-84
2022/08/21 13:57:00;;;;;;;9.10;4.77;;;;;;;;;;5051960;28;20789;-86
2022/08/21 13:59:31;;;;;;;6.27;5.37;;;;;;;;;;5053143;28;20607;-85
2022/08/21 14:02:00;;;;;;;7.67;4.90;;;;;;;;;;5051847;28;20197;-81
2022/08/21 14:04:36;;;;;;;6.37;5.10;;;;;;;;;;5052846;28;20206;-81
2022/08/21 14:07:03;;;;;;;6.57;4.67;;;;;;;;;;5052555;28;20263;-81
2022/08/21 14:09:33;;;;;;;6.63;5.93;;;;;;;;;;5053111;28;20225;-82
2022/08/21 14:12:03;;;;;;;9.53;5.80;;;;;;;;;;5052624;28;20201;-82
2022/08/21 14:14:34;;;;;;;7.70;6.20;;;;;;;;;;5052482;28;20599;-81
2022/08/21 14:17:04;;;;;;;6.43;5.83;;;;;;;;;;5052574;28;20696;-81
2022/08/21 14:19:38;;;;;;;7.63;5.10;;;;;;;;;;5052147;28;20201;-84
2022/08/21 14:22:23;;;;;;;7.77;5.50;;;;;;;;;;5052021;28;20224;-83
2022/08/21 14:24:50;;;;;;;6.57;4.60;;;;;;;;;;5045834;28;20194;-78
2022/08/21 14:27:20;;;;;;;7.63;5.70;;;;;;;;;;5053165;28;20661;-80
2022/08/21 14:29:48;;;;;;;5.70;5.10;;;;;;;;;;5053293;28;20264;-79
2022/08/21 14:32:17;;;;;;;7.43;5.70;;;;;;;;;;5053663;28;20194;-78
2022/08/21 14:34:43;;;;;;;6.50;5.70;;;;;;;;;;5051396;28;20202;-78
2022/08/21 14:37:10;;;;;;;6.47;5.50;;;;;;;;;;5052866;28;20225;-78
2022/08/21 14:39:37;;;;;;;6.20;5.60;;;;;;;;;;5052055;28;20202;-79
2022/08/21 14:42:04;;;;;;;5.63;5.13;;;;;;;;;;5052491;28;20202;-80
2022/08/21 14:44:31;;;;;;;5.67;5.00;;;;;;;;;;5052200;28;20190;-79
2022/08/21 14:47:00;;;;;;;6.13;5.53;;;;;;;;;;5052800;28;20275;-79
2022/08/21 14:49:29;;;;;;;5.77;4.93;;;;;;;;;;5051918;28;20233;-79
2022/08/21 14:51:57;;;;;;;7.53;5.60;;;;;;;;;;5052573;28;20224;-80
2022/08/21 14:54:24;;;;;;;5.70;5.20;;;;;;;;;;5051725;28;20260;-79
2022/08/21 14:56:51;;;;;;;6.93;5.60;;;;;;;;;;5052800;28;20331;-78
2022/08/21 14:59:20;;;;;;;9.57;5.50;;;;;;;;;;5053037;28;20197;-78
2022/08/21 15:01:47;;;;;;;6.17;5.57;;;;;;;;;;5052768;28;20209;-79